createdAt,value
2019-03-06T00:00:35.290Z,5.06
2019-03-06T00:03:01.856Z,5.07
2019-03-06T00:05:28.423Z,5.07
2019-03-06T00:07:55.288Z,5.08
2019-03-06T00:10:21.900Z,5.09
2019-03-06T00:12:48.459Z,5.10
2019-03-06T00:15:15.066Z,5.11
2019-03-06T00:17:41.635Z,5.11
2019-03-06T00:20:08.242Z,5.11
2019-03-06T00:22:35.035Z,5.10
2019-03-06T00:25:01.622Z,5.12
2019-03-06T00:27:28.212Z,5.11
2019-03-06T00:29:54.829Z,5.11
2019-03-06T00:32:21.386Z,5.12
2019-03-06T00:34:47.998Z,5.08
2019-03-06T00:37:14.751Z,5.07
2019-03-06T00:39:41.383Z,5.07
2019-03-06T00:42:07.958Z,5.06
2019-03-06T00:44:34.571Z,5.06
2019-03-06T00:47:01.146Z,5.06
2019-03-06T00:49:27.768Z,5.06
2019-03-06T00:51:54.419Z,5.07
2019-03-06T00:54:21.007Z,5.08
2019-03-06T00:56:47.591Z,5.09
2019-03-06T00:59:14.190Z,5.10
2019-03-06T01:01:40.793Z,5.11
2019-03-06T01:04:07.469Z,5.11
2019-03-06T01:06:34.042Z,5.14
2019-03-06T01:09:00.651Z,5.16
2019-03-06T01:11:27.229Z,5.16
2019-03-06T01:13:53.919Z,5.17
2019-03-06T01:16:20.531Z,5.19
2019-03-06T01:18:47.097Z,5.19
2019-03-06T01:21:13.672Z,5.17
2019-03-06T01:23:40.271Z,5.17
2019-03-06T01:26:06.849Z,5.18
2019-03-06T01:28:33.420Z,5.16
2019-03-06T01:30:59.995Z,5.16
2019-03-06T01:33:26.610Z,5.17
2019-03-06T01:35:53.193Z,5.16
2019-03-06T01:38:19.760Z,5.16
2019-03-06T01:40:46.325Z,5.17
2019-03-06T01:43:12.957Z,5.17
2019-03-06T01:45:39.536Z,5.19
2019-03-06T01:48:06.107Z,5.19
2019-03-06T01:50:32.695Z,5.20
2019-03-06T01:52:59.268Z,5.21
2019-03-06T01:55:25.859Z,5.22
2019-03-06T01:57:52.434Z,5.21
2019-03-06T02:00:19.023Z,5.21
2019-03-06T02:02:45.679Z,5.21
2019-03-06T02:05:12.258Z,5.22
2019-03-06T02:07:38.844Z,5.20
2019-03-06T02:10:05.416Z,5.22
2019-03-06T02:12:32.020Z,5.22
2019-03-06T02:14:58.590Z,5.20
2019-03-06T02:17:25.242Z,5.21
2019-03-06T02:19:51.817Z,5.20
2019-03-06T02:22:18.415Z,5.22
2019-03-06T02:24:44.986Z,5.20
2019-03-06T02:27:11.588Z,5.20
2019-03-06T02:29:38.159Z,5.20
2019-03-06T02:32:04.795Z,5.21
2019-03-06T02:34:31.641Z,5.23
2019-03-06T02:36:58.258Z,5.23
2019-03-06T02:39:24.827Z,5.26
2019-03-06T02:41:51.430Z,5.28
2019-03-06T02:44:18.075Z,5.31
2019-03-06T02:46:44.730Z,5.35
2019-03-06T02:49:11.575Z,5.39
2019-03-06T02:51:38.178Z,5.42
2019-03-06T02:54:04.744Z,5.45
2019-03-06T02:56:31.337Z,5.48
2019-03-06T02:58:57.917Z,5.51
2019-03-06T03:01:24.518Z,5.51
2019-03-06T03:03:51.113Z,5.53
2019-03-06T03:06:17.730Z,5.56
2019-03-06T03:08:44.288Z,5.58
2019-03-06T03:11:10.866Z,5.60
2019-03-06T03:13:37.434Z,5.64
2019-03-06T03:16:04.002Z,5.65
2019-03-06T03:18:30.589Z,5.69
2019-03-06T03:20:57.330Z,5.71
2019-03-06T03:23:23.906Z,5.75
2019-03-06T03:25:50.478Z,5.77
2019-03-06T03:28:19.723Z,5.79
2019-03-06T03:30:45.361Z,5.81
2019-03-06T03:33:11.937Z,5.83
2019-03-06T03:35:38.770Z,5.84
2019-03-06T03:38:05.342Z,5.85
2019-03-06T03:40:31.927Z,5.87
2019-03-06T03:42:58.498Z,5.86
2019-03-06T03:45:25.075Z,5.86
2019-03-06T03:47:51.721Z,5.87
2019-03-06T03:50:18.299Z,5.87
2019-03-06T03:52:44.924Z,5.86
2019-03-06T03:55:11.484Z,5.87
2019-03-06T03:57:38.073Z,5.87
2019-03-06T04:00:04.672Z,5.88
2019-03-06T04:02:31.287Z,5.89
2019-03-06T04:04:57.853Z,5.88
2019-03-06T04:07:24.787Z,5.88
2019-03-06T04:09:51.354Z,5.89
2019-03-06T04:12:17.948Z,5.87
2019-03-06T04:14:44.523Z,5.86
2019-03-06T04:17:11.134Z,5.84
2019-03-06T04:19:37.725Z,5.83
2019-03-06T04:22:04.311Z,5.80
2019-03-06T04:24:30.876Z,5.80
2019-03-06T04:26:57.467Z,5.77
2019-03-06T04:29:24.032Z,5.75
2019-03-06T04:31:50.650Z,5.76
2019-03-06T04:34:17.223Z,5.74
2019-03-06T04:36:43.832Z,5.76
2019-03-06T04:39:10.476Z,5.77
2019-03-06T04:41:37.051Z,5.76
2019-03-06T04:44:03.626Z,5.77
2019-03-06T04:46:30.195Z,5.78
2019-03-06T04:48:56.776Z,5.81
2019-03-06T04:51:23.357Z,5.83
2019-03-06T04:53:50.200Z,5.86
2019-03-06T04:56:16.780Z,5.88
2019-03-06T04:58:43.337Z,5.90
2019-03-06T05:01:09.905Z,5.92
2019-03-06T05:03:36.479Z,5.93
2019-03-06T05:06:03.060Z,5.95
2019-03-06T05:08:29.806Z,5.97
2019-03-06T05:10:56.387Z,5.97
2019-03-06T05:13:22.956Z,5.98
2019-03-06T05:15:49.531Z,5.99
2019-03-06T05:18:16.105Z,5.99
2019-03-06T05:20:42.679Z,5.99
2019-03-06T05:23:09.454Z,6.01
2019-03-06T05:25:36.303Z,6.00
2019-03-06T05:28:03.000Z,5.98
2019-03-06T05:30:29.573Z,5.97
2019-03-06T05:32:56.136Z,5.97
2019-03-06T05:35:22.709Z,6.01
2019-03-06T05:37:49.327Z,6.01
2019-03-06T05:40:15.896Z,6.01
2019-03-06T05:42:42.468Z,6.02
2019-03-06T05:45:09.039Z,6.03
2019-03-06T05:47:35.616Z,6.04
2019-03-06T05:50:02.190Z,6.05
2019-03-06T05:52:29.147Z,6.06
2019-03-06T05:54:55.783Z,6.08
2019-03-06T05:57:22.351Z,6.11
2019-03-06T05:59:48.919Z,6.14
2019-03-06T06:02:15.515Z,6.17
2019-03-06T06:04:42.126Z,6.19
2019-03-06T06:07:08.868Z,6.22
2019-03-06T06:09:35.457Z,6.22
2019-03-06T06:12:02.036Z,6.23
2019-03-06T06:14:28.617Z,6.23
2019-03-06T06:16:55.702Z,6.25
2019-03-06T06:19:22.386Z,6.25
2019-03-06T06:21:49.241Z,6.27
2019-03-06T06:24:15.852Z,6.30
2019-03-06T06:26:42.436Z,6.32
2019-03-06T06:29:09.045Z,6.34
2019-03-06T06:31:35.626Z,6.32
2019-03-06T06:34:02.237Z,6.31
2019-03-06T06:36:28.904Z,6.31
2019-03-06T06:38:55.607Z,6.30
2019-03-06T06:41:22.176Z,6.32
2019-03-06T06:43:48.892Z,6.34
2019-03-06T06:46:15.463Z,6.34
2019-03-06T06:48:42.045Z,6.39
2019-03-06T06:51:08.897Z,6.43
2019-03-06T06:53:35.474Z,6.49
2019-03-06T06:56:02.077Z,6.55
2019-03-06T06:58:31.586Z,6.61
2019-03-06T07:00:57.283Z,6.66
2019-03-06T07:03:23.863Z,6.72
2019-03-06T07:05:50.462Z,6.80
2019-03-06T07:08:17.039Z,6.88
2019-03-06T07:10:43.628Z,6.97
2019-03-06T07:13:10.189Z,7.06
2019-03-06T07:15:36.782Z,7.15
2019-03-06T07:18:03.346Z,7.26
2019-03-06T07:20:29.950Z,7.35
2019-03-06T07:22:56.516Z,7.46
2019-03-06T07:25:23.093Z,7.56
2019-03-06T07:27:49.707Z,7.67
2019-03-06T07:30:16.285Z,7.77
2019-03-06T07:32:43.261Z,7.88
2019-03-06T07:35:09.830Z,7.97
2019-03-06T07:37:36.426Z,8.07
2019-03-06T07:40:03.034Z,8.16
2019-03-06T07:42:29.636Z,8.24
2019-03-06T07:44:56.248Z,8.32
2019-03-06T07:47:22.823Z,8.41
2019-03-06T07:49:49.405Z,8.51
2019-03-06T07:52:15.983Z,8.61
2019-03-06T07:54:42.579Z,8.74
2019-03-06T07:57:09.167Z,8.88
2019-03-06T07:59:35.765Z,9.01
2019-03-06T08:02:02.346Z,9.12
2019-03-06T08:04:28.960Z,9.21
2019-03-06T08:06:55.525Z,9.26
2019-03-06T08:09:22.158Z,9.32
2019-03-06T08:11:48.735Z,9.40
2019-03-06T08:14:22.018Z,9.50
2019-03-06T08:16:43.922Z,9.61
2019-03-06T08:19:10.524Z,9.71
2019-03-06T08:21:37.103Z,9.84
2019-03-06T08:24:03.722Z,9.95
2019-03-06T08:26:30.318Z,10.05
2019-03-06T08:28:56.898Z,10.17
2019-03-06T08:31:23.469Z,10.27
2019-03-06T08:33:50.048Z,10.33
2019-03-06T08:36:16.620Z,10.42
2019-03-06T08:38:43.201Z,10.61
2019-03-06T08:41:09.793Z,10.67
2019-03-06T08:43:36.414Z,10.76
2019-03-06T08:46:02.981Z,10.86
2019-03-06T08:48:29.566Z,10.98
2019-03-06T08:50:56.166Z,11.06
2019-03-06T08:53:22.737Z,11.14
2019-03-06T08:55:49.369Z,11.28
2019-03-06T08:58:15.971Z,11.37
2019-03-06T09:00:42.592Z,11.50
2019-03-06T09:03:09.162Z,11.63
2019-03-06T09:05:35.744Z,11.79
2019-03-06T09:08:02.335Z,12.08
2019-03-06T09:10:28.894Z,12.30
2019-03-06T09:12:55.469Z,12.35
2019-03-06T09:15:23.820Z,12.35
2019-03-06T09:17:50.333Z,12.36
2019-03-06T09:20:16.916Z,12.41
2019-03-06T09:22:43.519Z,12.45
2019-03-06T09:25:10.376Z,12.58
2019-03-06T09:27:36.973Z,12.72
2019-03-06T09:30:03.567Z,12.81
2019-03-06T09:32:30.302Z,12.93
2019-03-06T09:34:56.943Z,13.16
2019-03-06T09:37:23.517Z,13.44
2019-03-06T09:39:50.288Z,13.63
2019-03-06T09:42:18.486Z,13.79
2019-03-06T09:44:45.628Z,13.81
2019-03-06T09:47:12.208Z,13.89
2019-03-06T09:49:38.817Z,13.91
2019-03-06T09:52:05.406Z,13.83
2019-03-06T09:54:32.199Z,13.68
2019-03-06T09:56:58.847Z,13.53
2019-03-06T09:59:25.534Z,13.45
2019-03-06T10:01:52.159Z,13.40
2019-03-06T10:04:18.725Z,13.40
2019-03-06T10:06:45.311Z,13.37
2019-03-06T10:09:12.093Z,13.24
2019-03-06T10:11:38.678Z,13.16
2019-03-06T10:14:05.287Z,13.14
2019-03-06T10:16:31.873Z,13.12
2019-03-06T10:18:58.580Z,13.16
2019-03-06T10:21:25.761Z,13.27
2019-03-06T10:23:52.641Z,13.55
2019-03-06T10:26:19.534Z,13.83
2019-03-06T10:28:46.128Z,14.07
2019-03-06T10:31:13.147Z,14.28
2019-03-06T10:33:39.819Z,14.76
2019-03-06T10:36:06.756Z,15.35
2019-03-06T10:38:33.413Z,15.96
2019-03-06T10:41:00.080Z,16.44
2019-03-06T10:43:26.669Z,16.88
2019-03-06T10:45:53.357Z,17.35
2019-03-06T10:48:19.924Z,17.88
2019-03-06T10:50:46.547Z,18.00
2019-03-06T10:53:13.175Z,18.07
2019-03-06T10:55:39.943Z,18.05
2019-03-06T10:58:06.675Z,18.11
2019-03-06T11:00:33.329Z,18.23
2019-03-06T11:03:00.308Z,18.41
2019-03-06T11:05:27.064Z,18.55
2019-03-06T11:07:53.923Z,18.52
2019-03-06T11:10:25.141Z,18.18
2019-03-06T11:12:48.794Z,17.70
2019-03-06T11:15:15.422Z,17.33
2019-03-06T11:17:42.225Z,17.37
2019-03-06T11:20:09.139Z,17.21
2019-03-06T11:22:35.785Z,17.13
2019-03-06T11:25:02.353Z,16.87
2019-03-06T11:27:28.948Z,16.56
2019-03-06T11:29:55.750Z,16.28
2019-03-06T11:32:22.353Z,16.09
2019-03-06T11:34:48.925Z,15.96
2019-03-06T11:37:15.562Z,15.81
2019-03-06T11:39:42.225Z,15.82
2019-03-06T11:42:08.845Z,15.81
2019-03-06T11:44:35.479Z,15.79
2019-03-06T11:47:02.081Z,15.82
2019-03-06T11:49:28.688Z,15.90
2019-03-06T11:51:55.495Z,15.97
2019-03-06T11:54:22.079Z,16.03
2019-03-06T11:56:48.689Z,15.95
2019-03-06T11:59:15.340Z,15.77
2019-03-06T12:01:47.937Z,15.53
2019-03-06T12:04:10.236Z,15.45
2019-03-06T12:06:36.942Z,15.40
2019-03-06T12:09:03.526Z,15.46
2019-03-06T12:11:30.426Z,15.66
2019-03-06T12:13:57.337Z,15.93
2019-03-06T12:16:24.196Z,16.31
2019-03-06T12:18:50.821Z,16.69
2019-03-06T12:21:17.535Z,17.02
2019-03-06T12:23:44.156Z,17.36
2019-03-06T12:26:10.732Z,17.71
2019-03-06T12:28:37.325Z,18.10
2019-03-06T12:31:03.899Z,18.33
2019-03-06T12:33:30.475Z,18.44
2019-03-06T12:35:57.138Z,18.55
2019-03-06T12:38:23.707Z,18.73
2019-03-06T12:40:50.282Z,18.92
2019-03-06T12:43:16.871Z,19.11
2019-03-06T12:45:43.530Z,19.21
2019-03-06T12:48:10.126Z,20.11
2019-03-06T12:50:36.702Z,20.24
2019-03-06T12:53:03.307Z,21.70
2019-03-06T12:55:29.938Z,23.71
2019-03-06T12:57:59.594Z,25.94
2019-03-06T13:00:24.893Z,28.02
2019-03-06T13:02:51.757Z,29.96
2019-03-06T13:05:18.365Z,31.62
2019-03-06T13:07:44.974Z,32.95
2019-03-06T13:10:11.552Z,33.32
2019-03-06T13:12:38.390Z,34.14
2019-03-06T13:15:05.144Z,35.03
2019-03-06T13:17:31.781Z,35.09
2019-03-06T13:19:58.497Z,34.87
2019-03-06T13:22:25.241Z,34.99
2019-03-06T13:24:51.887Z,34.91
2019-03-06T13:27:18.476Z,35.15
2019-03-06T13:29:45.598Z,35.44
2019-03-06T13:32:12.467Z,35.78
2019-03-06T13:34:39.090Z,36.10
2019-03-06T13:37:05.793Z,36.32
2019-03-06T13:39:32.689Z,36.66
2019-03-06T13:41:59.361Z,37.18
2019-03-06T13:44:25.934Z,37.99
2019-03-06T13:46:53.083Z,38.89
2019-03-06T13:49:19.748Z,39.86
2019-03-06T13:51:46.341Z,40.54
2019-03-06T13:54:12.989Z,41.04
2019-03-06T13:56:39.599Z,41.24
2019-03-06T13:59:06.550Z,41.36
2019-03-06T14:01:33.227Z,41.25
2019-03-06T14:03:59.892Z,40.93
2019-03-06T14:06:26.665Z,40.87
2019-03-06T14:08:53.323Z,40.89
2019-03-06T14:11:19.968Z,41.14
2019-03-06T14:13:46.570Z,41.41
2019-03-06T14:16:13.148Z,41.73
2019-03-06T14:18:39.741Z,41.92
2019-03-06T14:21:06.346Z,41.64
2019-03-06T14:23:35.230Z,41.49
2019-03-06T14:26:01.352Z,41.22
2019-03-06T14:28:28.034Z,41.09
2019-03-06T14:30:54.649Z,41.31
2019-03-06T14:33:21.282Z,41.72
2019-03-06T14:35:48.068Z,42.13
2019-03-06T14:38:14.737Z,42.57
2019-03-06T14:40:41.320Z,43.09
2019-03-06T14:43:07.889Z,43.67
2019-03-06T14:45:34.505Z,44.14
2019-03-06T14:48:01.197Z,44.22
2019-03-06T14:50:27.866Z,44.34
2019-03-06T14:52:54.565Z,44.48
2019-03-06T14:55:21.141Z,44.44
2019-03-06T14:57:47.740Z,44.34
2019-03-06T15:00:14.310Z,44.19
2019-03-06T15:02:41.022Z,43.99
2019-03-06T15:05:07.671Z,43.71
2019-03-06T15:07:34.348Z,43.52
2019-03-06T15:10:00.950Z,43.36
2019-03-06T15:12:27.799Z,43.21
2019-03-06T15:14:54.422Z,42.72
2019-03-06T15:17:21.007Z,42.31
2019-03-06T15:19:47.647Z,41.67
2019-03-06T15:22:14.225Z,40.83
2019-03-06T15:24:41.815Z,40.17
2019-03-06T15:27:08.697Z,39.60
2019-03-06T15:29:35.648Z,38.87
2019-03-06T15:32:02.311Z,38.20
2019-03-06T15:34:29.029Z,37.51
2019-03-06T15:36:55.617Z,36.74
2019-03-06T15:39:22.195Z,35.90
2019-03-06T15:41:48.783Z,34.99
2019-03-06T15:44:15.364Z,34.02
2019-03-06T15:46:42.005Z,32.97
2019-03-06T15:49:08.779Z,31.64
2019-03-06T15:51:35.345Z,30.03
2019-03-06T15:54:01.924Z,28.47
2019-03-06T15:56:28.572Z,26.92
2019-03-06T15:58:55.153Z,25.51
2019-03-06T16:01:21.724Z,24.27
2019-03-06T16:03:48.322Z,23.12
2019-03-06T16:06:20.269Z,22.08
2019-03-06T16:08:43.373Z,21.19
2019-03-06T16:11:10.148Z,20.40
2019-03-06T16:13:36.753Z,19.75
2019-03-06T16:16:03.329Z,19.17
2019-03-06T16:18:30.004Z,18.65
2019-03-06T16:20:56.660Z,18.21
2019-03-06T16:23:25.570Z,17.86
2019-03-06T16:25:52.153Z,17.51
2019-03-06T16:28:18.880Z,17.17
2019-03-06T16:30:45.439Z,16.88
2019-03-06T16:33:12.167Z,16.59
2019-03-06T16:35:38.751Z,16.33
2019-03-06T16:38:05.406Z,16.09
2019-03-06T16:40:32.024Z,15.85
2019-03-06T16:42:58.600Z,15.62
2019-03-06T16:45:25.181Z,15.34
2019-03-06T16:47:51.838Z,15.08
2019-03-06T16:50:18.441Z,14.81
2019-03-06T16:52:45.013Z,14.54
2019-03-06T16:55:11.708Z,14.30
2019-03-06T16:57:38.567Z,14.09
2019-03-06T17:00:05.158Z,13.87
2019-03-06T17:02:31.725Z,13.67
2019-03-06T17:05:00.347Z,13.48
2019-03-06T17:07:26.984Z,13.31
2019-03-06T17:09:53.592Z,13.16
2019-03-06T17:12:20.159Z,13.00
2019-03-06T17:14:46.954Z,12.88
2019-03-06T17:17:13.540Z,12.76
2019-03-06T17:19:40.238Z,12.59
2019-03-06T17:22:06.808Z,12.44
2019-03-06T17:24:33.427Z,12.29
2019-03-06T17:27:00.085Z,12.17
2019-03-06T17:29:26.696Z,12.04
2019-03-06T17:31:54.370Z,11.92
2019-03-06T17:34:21.132Z,11.80
2019-03-06T17:36:47.783Z,11.66
2019-03-06T17:39:14.403Z,11.52
2019-03-06T17:41:41.056Z,11.39
2019-03-06T17:44:07.676Z,11.26
2019-03-06T17:46:34.259Z,11.15
2019-03-06T17:49:00.985Z,11.01
2019-03-06T17:51:27.953Z,10.90
2019-03-06T17:53:54.622Z,10.77
2019-03-06T17:56:21.199Z,10.67
2019-03-06T17:58:47.851Z,10.56
2019-03-06T18:01:15.095Z,10.47
2019-03-06T18:03:41.728Z,10.39
2019-03-06T18:06:08.323Z,10.34
2019-03-06T18:08:35.285Z,10.29
2019-03-06T18:11:03.036Z,10.23
2019-03-06T18:13:30.716Z,10.18
2019-03-06T18:15:57.394Z,10.15
2019-03-06T18:18:24.029Z,10.11
2019-03-06T18:20:50.669Z,10.06
2019-03-06T18:23:17.324Z,10.01
2019-03-06T18:25:44.273Z,9.95
2019-03-06T18:28:10.849Z,9.91
2019-03-06T18:30:37.839Z,9.87
2019-03-06T18:33:04.656Z,9.83
2019-03-06T18:35:31.233Z,9.80
2019-03-06T18:37:57.811Z,9.76
2019-03-06T18:40:24.667Z,9.74
2019-03-06T18:42:51.295Z,9.71
2019-03-06T18:45:18.355Z,9.65
2019-03-06T18:47:45.028Z,9.65
2019-03-06T18:50:11.733Z,9.62
2019-03-06T18:52:38.483Z,9.60
2019-03-06T18:55:05.168Z,9.59
2019-03-06T18:57:32.056Z,9.58
2019-03-06T18:59:58.724Z,9.55
2019-03-06T19:02:25.295Z,9.55
2019-03-06T19:04:52.335Z,9.53
2019-03-06T19:07:18.994Z,9.53
2019-03-06T19:09:45.679Z,9.49
2019-03-06T19:12:12.264Z,9.46
2019-03-06T19:14:39.034Z,9.43
2019-03-06T19:17:05.619Z,9.40
2019-03-06T19:19:32.270Z,9.37
2019-03-06T19:21:58.913Z,9.35
2019-03-06T19:24:25.600Z,9.31
2019-03-06T19:26:52.184Z,9.28
2019-03-06T19:29:18.833Z,9.25
2019-03-06T19:31:45.485Z,9.24
2019-03-06T19:34:12.059Z,9.21
2019-03-06T19:36:38.635Z,9.21
2019-03-06T19:39:05.316Z,9.19
2019-03-06T19:41:32.186Z,9.18
2019-03-06T19:43:58.866Z,9.18
2019-03-06T19:46:25.612Z,9.18
2019-03-06T19:48:52.190Z,9.18
2019-03-06T19:51:18.771Z,9.18
2019-03-06T19:53:45.349Z,9.15
2019-03-06T19:56:11.935Z,9.14
2019-03-06T19:58:38.509Z,9.14
2019-03-06T20:01:05.366Z,9.14
2019-03-06T20:03:32.337Z,9.14
2019-03-06T20:05:59.331Z,9.14
2019-03-06T20:08:26.060Z,9.15
2019-03-06T20:10:52.738Z,9.14
2019-03-06T20:13:19.380Z,9.13
2019-03-06T20:15:46.536Z,9.13
2019-03-06T20:18:13.236Z,9.13
2019-03-06T20:20:42.213Z,9.12
2019-03-06T20:23:08.883Z,9.10
2019-03-06T20:25:37.163Z,9.08
2019-03-06T20:28:03.909Z,9.10
2019-03-06T20:30:30.577Z,9.10
2019-03-06T20:32:57.302Z,9.08
2019-03-06T20:35:23.952Z,9.09
2019-03-06T20:37:50.531Z,9.08
2019-03-06T20:40:17.332Z,9.06
2019-03-06T20:42:43.982Z,9.06
2019-03-06T20:45:10.572Z,9.05
2019-03-06T20:47:37.218Z,9.06
2019-03-06T20:50:03.808Z,9.06
2019-03-06T20:52:30.473Z,9.06
2019-03-06T20:54:57.100Z,9.07
2019-03-06T20:57:23.749Z,9.07
2019-03-06T20:59:50.626Z,9.06
2019-03-06T21:02:17.195Z,9.04
2019-03-06T21:04:43.787Z,9.03
2019-03-06T21:07:10.419Z,9.03
2019-03-06T21:09:36.983Z,9.03
2019-03-06T21:12:03.559Z,9.02
2019-03-06T21:14:30.207Z,9.04
2019-03-06T21:16:56.789Z,9.05
2019-03-06T21:19:25.390Z,9.05
2019-03-06T21:21:51.737Z,9.07
2019-03-06T21:24:18.389Z,9.08
2019-03-06T21:26:45.057Z,9.10
2019-03-06T21:29:11.640Z,9.10
2019-03-06T21:31:38.212Z,9.14
2019-03-06T21:34:04.920Z,9.13
2019-03-06T21:36:31.676Z,9.13
2019-03-06T21:38:58.325Z,9.15
2019-03-06T21:41:24.980Z,9.15
2019-03-06T21:43:51.671Z,9.17
2019-03-06T21:46:18.383Z,9.19
2019-03-06T21:48:44.957Z,9.16
2019-03-06T21:51:11.536Z,9.17
2019-03-06T21:53:39.169Z,9.17
2019-03-06T21:56:05.937Z,9.16
2019-03-06T21:58:32.509Z,9.16
2019-03-06T22:00:59.086Z,9.16
2019-03-06T22:03:25.735Z,9.14
2019-03-06T22:05:52.396Z,9.13
2019-03-06T22:08:18.968Z,9.14
2019-03-06T22:10:45.560Z,9.16
2019-03-06T22:13:12.128Z,9.16
2019-03-06T22:15:38.746Z,9.15
2019-03-06T22:18:05.316Z,9.17
2019-03-06T22:20:32.015Z,9.14
2019-03-06T22:22:58.863Z,9.13
2019-03-06T22:25:25.444Z,9.15
2019-03-06T22:27:52.010Z,9.15
2019-03-06T22:30:18.586Z,9.15
2019-03-06T22:32:45.199Z,9.17
2019-03-06T22:35:11.863Z,9.15
2019-03-06T22:37:38.514Z,9.17
2019-03-06T22:40:05.097Z,9.16
2019-03-06T22:42:31.987Z,9.16
2019-03-06T22:44:58.556Z,9.16
2019-03-06T22:47:25.153Z,9.16
2019-03-06T22:49:51.721Z,9.16
2019-03-06T22:52:18.305Z,9.15
2019-03-06T22:54:44.881Z,9.15
2019-03-06T22:57:11.479Z,9.14
2019-03-06T22:59:38.446Z,9.12
2019-03-06T23:02:05.058Z,9.13
2019-03-06T23:04:31.699Z,9.11
2019-03-06T23:06:58.326Z,9.11
2019-03-06T23:09:24.903Z,9.09
2019-03-06T23:11:51.524Z,9.09
2019-03-06T23:14:18.090Z,9.09
2019-03-06T23:16:44.689Z,9.09
2019-03-06T23:19:11.316Z,9.10
2019-03-06T23:21:37.918Z,9.09
2019-03-06T23:24:04.486Z,9.07
2019-03-06T23:26:31.101Z,9.07
2019-03-06T23:28:57.664Z,9.06
2019-03-06T23:31:24.261Z,9.05
2019-03-06T23:33:50.917Z,9.05
2019-03-06T23:36:17.543Z,9.03
2019-03-06T23:38:44.114Z,9.03
2019-03-06T23:41:10.675Z,9.01
2019-03-06T23:43:37.250Z,9.01
2019-03-06T23:46:03.825Z,9.00
2019-03-06T23:48:30.405Z,8.99
2019-03-06T23:50:56.982Z,8.99
2019-03-06T23:53:23.731Z,8.99
2019-03-06T23:55:50.292Z,8.98
2019-03-06T23:58:16.870Z,8.96
